createdAt,value
2018-02-09T00:01:15.970Z,73.32
2018-02-09T00:03:43.495Z,73.04
2018-02-09T00:06:11.028Z,73.19
2018-02-09T00:08:38.593Z,73.37
2018-02-09T00:11:06.524Z,73.25
2018-02-09T00:13:34.114Z,73.42
2018-02-09T00:16:01.722Z,73.29
2018-02-09T00:18:29.310Z,73.40
2018-02-09T00:20:56.854Z,73.14
2018-02-09T00:23:24.415Z,73.15
2018-02-09T00:25:51.967Z,73.05
2018-02-09T00:28:19.497Z,72.97
2018-02-09T00:30:47.356Z,73.05
2018-02-09T00:33:14.889Z,73.23
2018-02-09T00:35:42.436Z,73.09
2018-02-09T00:38:09.962Z,73.20
2018-02-09T00:40:37.486Z,73.26
2018-02-09T00:43:05.033Z,73.02
2018-02-09T00:45:32.585Z,73.13
2018-02-09T00:48:00.106Z,72.99
2018-02-09T00:50:27.926Z,72.99
2018-02-09T00:52:55.495Z,73.01
2018-02-09T00:55:23.036Z,73.05
2018-02-09T00:57:50.639Z,73.05
2018-02-09T01:00:18.228Z,73.11
2018-02-09T01:02:46.041Z,72.94
2018-02-09T01:05:13.561Z,72.87
2018-02-09T01:07:41.124Z,73.02
2018-02-09T01:10:08.702Z,73.08
2018-02-09T01:12:36.205Z,73.08
2018-02-09T01:15:03.763Z,72.84
2018-02-09T01:17:31.302Z,72.93
2018-02-09T01:19:58.821Z,72.89
2018-02-09T01:22:26.724Z,73.00
2018-02-09T01:24:54.284Z,72.97
2018-02-09T01:27:21.799Z,73.00
2018-02-09T01:29:49.354Z,72.98
2018-02-09T01:32:17.026Z,73.05
2018-02-09T01:34:44.540Z,73.07
2018-02-09T01:37:12.075Z,72.94
2018-02-09T01:39:39.656Z,73.12
2018-02-09T01:42:07.195Z,72.90
2018-02-09T01:44:34.712Z,72.90
2018-02-09T01:47:02.268Z,72.92
2018-02-09T01:49:29.802Z,72.91
2018-02-09T01:51:57.337Z,73.18
2018-02-09T01:54:24.869Z,72.88
2018-02-09T01:56:52.437Z,73.05
2018-02-09T01:59:19.964Z,73.06
2018-02-09T02:01:47.524Z,73.31
2018-02-09T02:04:15.077Z,73.03
2018-02-09T02:06:42.605Z,73.35
2018-02-09T02:09:10.444Z,73.37
2018-02-09T02:11:37.954Z,73.33
2018-02-09T02:14:05.473Z,73.30
2018-02-09T02:16:32.998Z,73.15
2018-02-09T02:19:00.523Z,73.13
2018-02-09T02:21:28.061Z,73.12
2018-02-09T02:23:55.619Z,73.12
2018-02-09T02:26:23.146Z,73.29
2018-02-09T02:28:50.661Z,73.09
2018-02-09T02:31:18.189Z,73.12
2018-02-09T02:33:46.065Z,73.02
2018-02-09T02:36:13.598Z,73.05
2018-02-09T02:38:41.150Z,73.26
2018-02-09T02:41:08.681Z,73.18
2018-02-09T02:43:36.220Z,73.25
2018-02-09T02:46:03.776Z,73.06
2018-02-09T02:48:31.320Z,73.30
2018-02-09T02:50:58.880Z,72.82
2018-02-09T02:53:26.455Z,73.09
2018-02-09T02:55:53.979Z,73.13
2018-02-09T02:58:21.520Z,73.05
2018-02-09T03:00:49.106Z,73.14
2018-02-09T03:03:16.621Z,73.23
2018-02-09T03:05:44.149Z,73.22
2018-02-09T03:08:11.686Z,73.27
2018-02-09T03:10:39.211Z,73.44
2018-02-09T03:13:06.740Z,73.40
2018-02-09T03:15:34.520Z,73.33
2018-02-09T03:18:02.039Z,73.19
2018-02-09T03:20:29.583Z,73.26
2018-02-09T03:22:57.345Z,73.19
2018-02-09T03:25:25.211Z,73.14
2018-02-09T03:27:52.727Z,73.27
2018-02-09T03:30:20.282Z,73.21
2018-02-09T03:32:47.821Z,73.13
2018-02-09T03:35:15.341Z,73.10
2018-02-09T03:37:42.889Z,72.82
2018-02-09T03:40:10.674Z,73.11
2018-02-09T03:42:38.219Z,73.02
2018-02-09T03:45:05.766Z,73.21
2018-02-09T03:47:33.294Z,73.19
2018-02-09T03:50:00.823Z,73.11
2018-02-09T03:52:28.371Z,73.10
2018-02-09T03:54:55.901Z,73.12
2018-02-09T03:57:23.481Z,72.81
2018-02-09T03:59:51.026Z,73.08
2018-02-09T04:02:18.627Z,73.14
2018-02-09T04:04:46.163Z,73.14
2018-02-09T04:07:13.947Z,72.94
2018-02-09T04:09:41.812Z,73.00
2018-02-09T04:12:09.336Z,73.00
2018-02-09T04:14:37.194Z,72.70
2018-02-09T04:17:04.752Z,73.04
2018-02-09T04:19:32.338Z,73.01
2018-02-09T04:21:59.908Z,72.92
2018-02-09T04:24:27.441Z,73.03
2018-02-09T04:26:54.993Z,72.57
2018-02-09T04:29:22.498Z,72.92
2018-02-09T04:31:50.043Z,72.74
2018-02-09T04:34:17.576Z,72.62
2018-02-09T04:36:45.099Z,72.76
2018-02-09T04:39:12.633Z,72.89
2018-02-09T04:41:40.168Z,72.84
2018-02-09T04:44:07.709Z,72.80
2018-02-09T04:46:35.308Z,72.98
2018-02-09T04:49:02.827Z,72.46
2018-02-09T04:51:30.396Z,72.89
2018-02-09T04:53:58.192Z,72.51
2018-02-09T04:56:28.832Z,72.66
2018-02-09T04:58:56.368Z,72.73
2018-02-09T05:01:24.130Z,72.92
2018-02-09T05:03:51.696Z,72.73
2018-02-09T05:06:19.437Z,72.56
2018-02-09T05:08:47.008Z,72.98
2018-02-09T05:11:14.513Z,72.78
2018-02-09T05:13:42.034Z,72.65
2018-02-09T05:16:09.595Z,72.79
2018-02-09T05:18:37.126Z,72.93
2018-02-09T05:21:04.633Z,91.61
2018-02-09T05:23:32.211Z,87.67
2018-02-09T05:25:59.986Z,83.26
2018-02-09T05:28:27.511Z,69.12
2018-02-09T05:30:55.057Z,66.11
2018-02-09T05:33:22.580Z,66.94
2018-02-09T05:35:50.119Z,67.05
2018-02-09T05:38:17.692Z,66.48
2018-02-09T05:40:45.219Z,66.46
2018-02-09T05:43:12.746Z,66.13
2018-02-09T05:45:40.305Z,65.98
2018-02-09T05:48:07.835Z,64.32
2018-02-09T05:50:35.379Z,62.74
2018-02-09T05:53:02.945Z,60.20
2018-02-09T05:55:30.470Z,57.47
2018-02-09T05:57:57.991Z,54.78
2018-02-09T06:00:25.523Z,51.66
2018-02-09T06:02:53.038Z,49.05
2018-02-09T06:05:20.599Z,46.77
2018-02-09T06:07:48.150Z,43.91
2018-02-09T06:10:15.661Z,41.74
2018-02-09T06:12:43.184Z,39.43
2018-02-09T06:15:10.768Z,37.61
2018-02-09T06:17:38.303Z,35.82
2018-02-09T06:20:05.849Z,33.81
2018-02-09T06:22:33.392Z,32.88
2018-02-09T06:25:00.921Z,32.84
2018-02-09T06:27:28.443Z,34.29
2018-02-09T06:29:55.996Z,36.34
2018-02-09T06:32:23.582Z,36.74
2018-02-09T06:34:51.098Z,36.45
2018-02-09T06:37:18.623Z,36.46
2018-02-09T06:39:46.171Z,37.25
2018-02-09T06:42:13.688Z,37.91
2018-02-09T06:44:41.211Z,37.65
2018-02-09T06:47:08.749Z,37.48
2018-02-09T06:49:36.261Z,38.13
2018-02-09T06:52:03.782Z,38.15
2018-02-09T06:54:31.348Z,35.81
2018-02-09T06:56:58.866Z,32.04
2018-02-09T06:59:26.390Z,27.83
2018-02-09T07:01:53.941Z,24.45
2018-02-09T07:04:21.448Z,22.12
2018-02-09T07:06:48.975Z,20.32
2018-02-09T07:09:16.532Z,18.88
2018-02-09T07:11:44.060Z,18.44
2018-02-09T07:14:11.856Z,18.08
2018-02-09T07:16:39.530Z,19.28
2018-02-09T07:19:07.054Z,21.11
2018-02-09T07:21:34.612Z,22.41
2018-02-09T07:24:02.154Z,23.48
2018-02-09T07:26:29.684Z,24.50
2018-02-09T07:28:57.220Z,25.74
2018-02-09T07:31:24.804Z,26.96
2018-02-09T07:33:52.325Z,27.52
2018-02-09T07:36:19.874Z,27.21
2018-02-09T07:38:47.427Z,27.86
2018-02-09T07:41:14.929Z,28.72
2018-02-09T07:43:42.490Z,29.51
2018-02-09T07:46:10.120Z,30.65
2018-02-09T07:48:37.629Z,31.76
2018-02-09T07:51:05.139Z,32.57
2018-02-09T07:53:32.681Z,33.41
2018-02-09T07:56:00.215Z,34.21
2018-02-09T07:58:27.748Z,34.88
2018-02-09T08:00:55.312Z,35.53
2018-02-09T08:03:22.862Z,36.34
2018-02-09T08:05:50.460Z,36.91
2018-02-09T08:08:17.998Z,37.43
2018-02-09T08:10:45.520Z,37.66
2018-02-09T08:13:13.057Z,37.62
2018-02-09T08:15:40.617Z,37.71
2018-02-09T08:18:08.159Z,37.51
2018-02-09T08:20:35.664Z,37.03
2018-02-09T08:23:03.228Z,36.43
2018-02-09T08:25:30.738Z,33.39
2018-02-09T08:27:58.259Z,29.98
2018-02-09T08:30:25.816Z,26.29
2018-02-09T08:32:53.358Z,24.88
2018-02-09T08:35:20.986Z,24.52
2018-02-09T08:37:48.537Z,24.50
2018-02-09T08:40:16.078Z,24.67
2018-02-09T08:42:43.611Z,25.16
2018-02-09T08:45:11.184Z,24.86
2018-02-09T08:47:39.019Z,24.18
2018-02-09T08:50:06.545Z,22.92
2018-02-09T08:52:34.092Z,19.87
2018-02-09T08:55:01.619Z,16.97
2018-02-09T08:57:29.140Z,14.20
2018-02-09T08:59:56.688Z,12.53
2018-02-09T09:02:24.353Z,12.05
2018-02-09T09:04:51.873Z,11.22
2018-02-09T09:07:19.389Z,11.19
2018-02-09T09:09:46.947Z,10.73
2018-02-09T09:12:14.818Z,10.16
2018-02-09T09:14:42.382Z,9.64
2018-02-09T09:17:09.964Z,8.87
2018-02-09T09:19:37.473Z,8.30
2018-02-09T09:22:05.014Z,7.89
2018-02-09T09:24:32.578Z,7.64
2018-02-09T09:27:00.096Z,7.30
2018-02-09T09:29:27.638Z,6.89
2018-02-09T09:31:55.269Z,6.61
2018-02-09T09:34:22.758Z,6.27
2018-02-09T09:36:50.269Z,6.01
2018-02-09T09:39:17.817Z,5.89
2018-02-09T09:41:45.320Z,5.72
2018-02-09T09:44:13.146Z,5.66
2018-02-09T09:46:40.685Z,5.26
2018-02-09T09:49:08.470Z,5.31
2018-02-09T09:51:36.041Z,5.34
2018-02-09T09:54:03.562Z,5.17
2018-02-09T09:56:31.302Z,5.12
2018-02-09T09:58:58.817Z,4.93
2018-02-09T10:01:31.336Z,4.73
2018-02-09T10:03:58.854Z,4.71
2018-02-09T10:06:26.841Z,4.44
2018-02-09T10:08:54.385Z,4.43
2018-02-09T10:11:21.919Z,4.37
2018-02-09T10:13:49.516Z,4.38
2018-02-09T10:16:17.283Z,4.20
2018-02-09T10:18:44.800Z,4.12
2018-02-09T10:21:12.583Z,4.07
2018-02-09T10:23:40.105Z,3.93
2018-02-09T10:26:07.620Z,3.80
2018-02-09T10:28:35.125Z,3.75
2018-02-09T10:31:02.650Z,3.98
2018-02-09T10:33:30.153Z,3.87
2018-02-09T10:35:57.660Z,3.95
2018-02-09T10:38:25.625Z,4.08
2018-02-09T10:40:53.154Z,4.49
2018-02-09T10:43:20.675Z,4.72
2018-02-09T10:45:48.479Z,4.84
2018-02-09T10:48:16.026Z,5.23
2018-02-09T10:50:43.542Z,5.33
2018-02-09T10:53:11.085Z,5.47
2018-02-09T10:55:38.647Z,5.62
2018-02-09T10:58:06.153Z,5.85
2018-02-09T11:00:39.272Z,6.22
2018-02-09T11:03:06.796Z,6.29
2018-02-09T11:05:34.607Z,6.64
2018-02-09T11:08:02.514Z,6.73
2018-02-09T11:10:33.862Z,7.00
2018-02-09T11:13:06.938Z,7.28
2018-02-09T11:15:35.037Z,7.52
2018-02-09T11:18:02.623Z,7.79
2018-02-09T11:20:30.230Z,7.96
2018-02-09T11:22:57.983Z,8.33
2018-02-09T11:25:25.513Z,8.64
2018-02-09T11:27:53.049Z,8.73
2018-02-09T11:30:20.600Z,9.00
2018-02-09T11:32:48.105Z,9.28
2018-02-09T11:35:17.667Z,9.56
2018-02-09T11:37:45.209Z,10.10
2018-02-09T11:40:13.044Z,10.25
2018-02-09T11:42:40.548Z,10.73
2018-02-09T11:45:08.506Z,10.96
2018-02-09T11:47:36.013Z,11.42
2018-02-09T11:50:03.569Z,11.91
2018-02-09T11:52:32.056Z,12.20
2018-02-09T11:54:59.561Z,12.50
2018-02-09T11:57:27.329Z,13.06
2018-02-09T11:59:54.878Z,13.66
2018-02-09T12:02:22.438Z,14.04
2018-02-09T12:04:49.962Z,14.25
2018-02-09T12:07:17.479Z,14.74
2018-02-09T12:09:45.013Z,15.19
2018-02-09T12:12:12.518Z,15.56
2018-02-09T12:14:40.115Z,15.97
2018-02-09T12:17:07.653Z,16.26
2018-02-09T12:19:35.181Z,16.73
2018-02-09T12:22:02.712Z,16.98
2018-02-09T12:24:30.251Z,17.44
2018-02-09T12:26:57.770Z,17.91
2018-02-09T12:29:25.278Z,18.18
2018-02-09T12:31:52.840Z,18.59
2018-02-09T12:34:20.370Z,18.76
2018-02-09T12:36:47.886Z,19.01
2018-02-09T12:39:15.422Z,19.31
2018-02-09T12:41:42.944Z,19.57
2018-02-09T12:44:10.463Z,19.79
2018-02-09T12:46:38.058Z,20.08
2018-02-09T12:49:05.583Z,20.22
2018-02-09T12:51:33.085Z,20.53
2018-02-09T12:54:00.634Z,20.74
2018-02-09T12:56:28.152Z,20.90
2018-02-09T12:58:55.694Z,21.27
2018-02-09T13:01:23.268Z,21.67
2018-02-09T13:03:50.811Z,21.92
2018-02-09T13:06:18.334Z,22.03
2018-02-09T13:08:46.550Z,22.18
2018-02-09T13:11:14.058Z,22.36
2018-02-09T13:13:41.996Z,22.43
2018-02-09T13:16:13.418Z,22.60
2018-02-09T13:18:48.310Z,22.93
2018-02-09T13:21:15.904Z,23.04
2018-02-09T13:23:55.190Z,23.09
2018-02-09T13:26:24.952Z,23.17
2018-02-09T13:29:01.081Z,23.40
2018-02-09T13:31:28.622Z,23.65
2018-02-09T13:33:56.139Z,23.77
2018-02-09T13:36:35.527Z,23.88
2018-02-09T13:39:03.074Z,24.06
2018-02-09T13:41:30.920Z,24.17
2018-02-09T13:43:58.475Z,24.28
2018-02-09T13:46:25.977Z,24.34
2018-02-09T13:48:53.549Z,24.47
2018-02-09T13:51:21.289Z,24.91
2018-02-09T13:53:48.814Z,25.28
2018-02-09T13:56:17.217Z,25.70
2018-02-09T13:58:44.782Z,26.07
2018-02-09T14:01:12.456Z,26.12
2018-02-09T14:03:41.155Z,26.29
2018-02-09T14:06:08.726Z,26.65
2018-02-09T14:08:36.293Z,27.18
2018-02-09T14:11:03.833Z,27.39
2018-02-09T14:13:31.358Z,27.85
2018-02-09T14:15:59.215Z,28.18
2018-02-09T14:18:26.761Z,27.71
2018-02-09T14:20:55.164Z,28.72
2018-02-09T14:23:22.727Z,29.30
2018-02-09T14:25:50.246Z,28.75
2018-02-09T14:28:17.769Z,29.34
2018-02-09T14:30:45.320Z,29.85
2018-02-09T14:33:12.921Z,30.02
2018-02-09T14:35:40.486Z,30.45
2018-02-09T14:38:08.052Z,30.83
2018-02-09T14:40:35.576Z,31.55
2018-02-09T14:43:03.106Z,31.92
2018-02-09T14:45:30.961Z,32.24
2018-02-09T14:47:58.489Z,32.46
2018-02-09T14:50:26.018Z,32.42
2018-02-09T14:52:53.584Z,33.42
2018-02-09T14:55:21.397Z,33.25
2018-02-09T14:57:48.899Z,33.55
2018-02-09T15:00:16.549Z,34.26
2018-02-09T15:02:44.091Z,34.89
2018-02-09T15:05:11.630Z,34.86
2018-02-09T15:07:39.441Z,34.90
2018-02-09T15:10:06.994Z,34.55
2018-02-09T15:12:34.595Z,35.48
2018-02-09T15:15:02.179Z,55.45
2018-02-09T15:17:30.100Z,48.61
2018-02-09T15:19:57.630Z,47.50
2018-02-09T15:22:25.283Z,46.69
2018-02-09T15:24:52.842Z,47.39
2018-02-09T15:27:20.448Z,47.13
2018-02-09T15:29:48.019Z,47.38
2018-02-09T15:32:15.634Z,47.70
2018-02-09T15:34:43.282Z,48.25
2018-02-09T15:37:10.918Z,48.36
2018-02-09T15:39:38.445Z,48.74
2018-02-09T15:42:05.995Z,48.92
2018-02-09T15:44:33.561Z,49.14
2018-02-09T15:47:01.503Z,49.53
2018-02-09T15:49:29.403Z,49.69
2018-02-09T15:51:56.957Z,49.86
2018-02-09T15:54:24.545Z,49.86
2018-02-09T15:56:52.130Z,50.72
2018-02-09T15:59:19.637Z,50.50
2018-02-09T16:01:47.472Z,51.05
2018-02-09T16:04:15.260Z,51.21
2018-02-09T16:06:42.800Z,51.90
2018-02-09T16:09:10.379Z,52.03
2018-02-09T16:11:37.921Z,52.23
2018-02-09T16:14:05.514Z,52.62
2018-02-09T16:16:33.063Z,53.02
2018-02-09T16:19:00.577Z,52.27
2018-02-09T16:21:28.323Z,53.10
2018-02-09T16:23:55.953Z,53.58
2018-02-09T16:26:23.541Z,53.55
2018-02-09T16:28:51.079Z,53.82
2018-02-09T16:31:18.625Z,71.37
2018-02-09T16:33:46.235Z,68.68
2018-02-09T16:36:14.008Z,65.51
2018-02-09T16:38:41.590Z,64.63
2018-02-09T16:41:09.132Z,64.25
2018-02-09T16:43:36.724Z,63.80
2018-02-09T16:46:04.261Z,64.00
2018-02-09T16:48:31.769Z,63.88
2018-02-09T16:50:59.542Z,64.02
2018-02-09T16:53:27.132Z,64.09
2018-02-09T16:55:54.659Z,64.28
2018-02-09T16:58:22.182Z,64.14
2018-02-09T17:00:49.892Z,63.95
2018-02-09T17:03:17.443Z,63.35
2018-02-09T17:05:44.971Z,63.81
2018-02-09T17:08:12.617Z,63.96
2018-02-09T17:10:40.168Z,64.21
2018-02-09T17:13:07.745Z,64.17
2018-02-09T17:15:35.334Z,63.77
2018-02-09T17:18:03.708Z,64.31
2018-02-09T17:20:31.221Z,64.34
2018-02-09T17:22:58.777Z,64.00
2018-02-09T17:25:26.337Z,71.21
2018-02-09T17:27:54.774Z,74.60
2018-02-09T17:30:22.363Z,71.05
2018-02-09T17:32:49.904Z,68.90
2018-02-09T17:35:17.508Z,68.17
2018-02-09T17:37:45.102Z,67.85
2018-02-09T17:40:12.640Z,67.58
2018-02-09T17:42:40.548Z,67.46
2018-02-09T17:45:08.157Z,67.43
2018-02-09T17:47:35.709Z,67.07
2018-02-09T17:50:03.319Z,67.19
2018-02-09T17:52:31.090Z,66.96
2018-02-09T17:54:58.655Z,67.04
2018-02-09T17:57:27.373Z,67.19
2018-02-09T17:59:54.925Z,66.86
2018-02-09T18:02:23.145Z,66.64
2018-02-09T18:04:50.882Z,66.74
2018-02-09T18:07:18.746Z,66.88
2018-02-09T18:09:46.424Z,66.84
2018-02-09T18:12:13.986Z,66.53
2018-02-09T18:14:41.593Z,66.49
2018-02-09T18:17:09.172Z,66.68
2018-02-09T18:19:36.842Z,66.63
2018-02-09T18:22:04.662Z,66.36
2018-02-09T18:24:32.247Z,66.58
2018-02-09T18:27:00.270Z,66.51
2018-02-09T18:29:27.881Z,66.76
2018-02-09T18:31:56.360Z,66.52
2018-02-09T18:34:24.114Z,66.82
2018-02-09T18:36:51.689Z,66.46
2018-02-09T18:39:19.390Z,66.70
2018-02-09T18:41:47.257Z,66.67
2018-02-09T18:44:15.118Z,66.74
2018-02-09T18:46:42.686Z,66.75
2018-02-09T18:49:10.212Z,66.88
2018-02-09T18:51:37.748Z,66.70
2018-02-09T18:54:06.067Z,66.75
2018-02-09T18:56:33.990Z,66.77
2018-02-09T18:59:02.429Z,66.95
2018-02-09T19:01:30.078Z,66.93
2018-02-09T19:03:57.890Z,66.92
2018-02-09T19:06:26.418Z,66.64
2018-02-09T19:08:54.773Z,66.88
2018-02-09T19:11:22.303Z,66.53
2018-02-09T19:13:52.547Z,66.67
2018-02-09T19:16:20.256Z,66.89
2018-02-09T19:18:49.034Z,66.80
2018-02-09T19:21:16.570Z,66.92
2018-02-09T19:23:44.129Z,66.69
2018-02-09T19:26:12.691Z,66.99
2018-02-09T19:28:40.222Z,67.01
2018-02-09T19:31:07.798Z,66.99
2018-02-09T19:33:35.932Z,67.13
2018-02-09T19:36:03.461Z,66.90
2018-02-09T19:38:31.122Z,67.09
2018-02-09T19:40:58.656Z,66.97
2018-02-09T19:43:26.198Z,66.82
2018-02-09T19:45:53.766Z,66.98
2018-02-09T19:48:22.144Z,79.65
2018-02-09T19:50:50.437Z,79.99
2018-02-09T19:53:18.087Z,75.11
2018-02-09T19:55:45.613Z,72.87
2018-02-09T19:58:13.204Z,71.95
2018-02-09T20:00:40.778Z,71.53
2018-02-09T20:03:08.359Z,71.24
2018-02-09T20:05:35.888Z,70.88
2018-02-09T20:08:03.967Z,70.92
2018-02-09T20:10:31.693Z,77.89
2018-02-09T20:13:01.323Z,73.85
2018-02-09T20:15:29.656Z,72.60
2018-02-09T20:17:57.188Z,71.94
2018-02-09T20:20:24.713Z,71.38
2018-02-09T20:22:52.382Z,71.17
2018-02-09T20:25:20.242Z,71.07
2018-02-09T20:27:48.094Z,70.80
2018-02-09T20:30:15.669Z,70.59
2018-02-09T20:32:43.253Z,70.44
2018-02-09T20:35:10.809Z,70.79
2018-02-09T20:37:38.395Z,70.62
2018-02-09T20:40:05.914Z,70.38
2018-02-09T20:42:33.715Z,70.48
2018-02-09T20:45:01.473Z,70.39
2018-02-09T20:47:28.989Z,70.37
2018-02-09T20:49:56.517Z,70.34
2018-02-09T20:52:24.062Z,70.17
2018-02-09T20:54:57.846Z,70.22
2018-02-09T20:57:25.406Z,69.97
2018-02-09T20:59:52.935Z,70.18
2018-02-09T21:02:22.324Z,70.22
2018-02-09T21:04:51.719Z,69.99
2018-02-09T21:07:19.342Z,70.00
2018-02-09T21:09:47.308Z,69.94
2018-02-09T21:12:14.824Z,69.86
2018-02-09T21:14:43.178Z,69.90
2018-02-09T21:17:10.736Z,69.86
2018-02-09T21:19:38.419Z,69.84
2018-02-09T21:22:05.953Z,69.48
2018-02-09T21:24:33.540Z,69.89
2018-02-09T21:27:01.073Z,69.75
2018-02-09T21:29:28.625Z,69.91
2018-02-09T21:31:56.344Z,69.79
2018-02-09T21:34:24.014Z,69.74
2018-02-09T21:36:51.540Z,69.75
2018-02-09T21:39:19.105Z,69.73
2018-02-09T21:41:46.744Z,69.68
2018-02-09T21:44:14.273Z,69.74
2018-02-09T21:46:41.860Z,69.76
2018-02-09T21:49:09.396Z,69.76
2018-02-09T21:51:36.940Z,69.63
2018-02-09T21:54:04.552Z,69.59
2018-02-09T21:56:32.104Z,69.59
2018-02-09T21:59:00.560Z,69.64
2018-02-09T22:01:29.725Z,69.51
2018-02-09T22:03:58.946Z,69.64
2018-02-09T22:06:27.456Z,69.56
2018-02-09T22:08:56.201Z,69.66
2018-02-09T22:11:23.792Z,69.44
2018-02-09T22:13:51.336Z,69.67
2018-02-09T22:16:18.910Z,69.53
2018-02-09T22:18:46.447Z,69.59
2018-02-09T22:21:13.980Z,69.43
2018-02-09T22:23:41.650Z,69.56
2018-02-09T22:26:09.182Z,69.55
2018-02-09T22:28:36.706Z,69.54
2018-02-09T22:31:04.595Z,69.66
2018-02-09T22:33:32.113Z,69.59
2018-02-09T22:35:59.646Z,69.47
2018-02-09T22:38:27.183Z,69.40
2018-02-09T22:40:54.707Z,69.49
2018-02-09T22:43:22.250Z,69.63
2018-02-09T22:45:49.785Z,69.60
2018-02-09T22:48:17.315Z,69.63
2018-02-09T22:50:44.838Z,69.62
2018-02-09T22:53:12.393Z,69.61
2018-02-09T22:55:40.205Z,69.78
2018-02-09T22:58:07.725Z,69.66
2018-02-09T23:00:35.273Z,69.67
2018-02-09T23:03:02.792Z,69.58
2018-02-09T23:05:30.327Z,69.68
2018-02-09T23:07:57.886Z,69.65
2018-02-09T23:10:25.428Z,69.65
2018-02-09T23:12:52.974Z,69.75
2018-02-09T23:15:20.514Z,69.61
2018-02-09T23:17:48.039Z,69.63
2018-02-09T23:20:15.576Z,69.71
2018-02-09T23:22:43.127Z,69.57
2018-02-09T23:25:10.650Z,69.74
2018-02-09T23:27:38.438Z,69.60
2018-02-09T23:30:06.785Z,69.63
2018-02-09T23:32:34.323Z,69.63
2018-02-09T23:35:01.851Z,69.48
2018-02-09T23:37:29.408Z,69.66
2018-02-09T23:39:56.947Z,69.82
2018-02-09T23:42:24.476Z,69.65
2018-02-09T23:44:52.041Z,69.55
2018-02-09T23:47:19.568Z,69.64
2018-02-09T23:49:47.104Z,69.61
2018-02-09T23:52:14.655Z,69.61
2018-02-09T23:54:42.213Z,69.75
2018-02-09T23:57:09.754Z,69.72
2018-02-09T23:59:37.566Z,69.87
